createdAt,value
2023-04-23T00:00:35.197Z,97503.19
2023-04-23T00:03:21.739Z,97493.88
2023-04-23T00:06:08.083Z,97498.38
2023-04-23T00:08:54.384Z,97504.81
2023-04-23T00:11:39.812Z,97499.06
2023-04-23T00:14:25.397Z,97491.53
2023-04-23T00:17:10.692Z,97495.72
2023-04-23T00:19:55.801Z,97497.91
2023-04-23T00:22:41.082Z,97500.34
2023-04-23T00:25:26.696Z,97448.91
2023-04-23T00:28:12.226Z,97490.31
2023-04-23T00:30:57.535Z,97504.16
2023-04-23T00:33:43.097Z,97499.78
2023-04-23T00:36:28.686Z,97499.31
2023-04-23T00:39:14.706Z,97492.00
2023-04-23T00:42:00.036Z,97437.22
2023-04-23T00:44:45.630Z,97493.16
2023-04-23T00:47:31.358Z,97483.63
2023-04-23T00:50:16.673Z,97463.16
2023-04-23T00:53:01.787Z,97488.38
2023-04-23T00:55:47.102Z,97459.19
2023-04-23T00:58:33.182Z,97477.72
2023-04-23T01:01:20.970Z,97481.28
2023-04-23T01:04:07.677Z,97437.22
2023-04-23T01:06:53.843Z,97475.03
2023-04-23T01:09:39.883Z,97478.75
2023-04-23T01:12:25.623Z,97481.59
2023-04-23T01:15:11.077Z,97484.00
2023-04-23T01:17:56.336Z,97484.59
2023-04-23T01:20:41.892Z,97480.25
2023-04-23T01:23:27.392Z,97437.66
2023-04-23T01:26:12.776Z,97479.31
2023-04-23T01:28:59.153Z,97462.44
2023-04-23T01:31:46.763Z,97480.34
2023-04-23T01:34:32.834Z,97480.47
2023-04-23T01:37:18.991Z,97481.28
2023-04-23T01:40:06.587Z,97464.22
2023-04-23T01:42:52.494Z,97481.72
2023-04-23T01:45:38.498Z,97477.81
2023-04-23T01:48:25.702Z,97474.91
2023-04-23T01:51:11.147Z,97474.13
2023-04-23T01:53:56.550Z,97478.25
2023-04-23T01:56:42.106Z,97481.16
2023-04-23T01:59:27.290Z,97475.72
2023-04-23T02:02:12.854Z,97478.06
2023-04-23T02:05:00.352Z,97471.81
2023-04-23T02:07:47.946Z,97477.81
2023-04-23T02:10:33.565Z,97473.56
2023-04-23T02:13:19.588Z,97453.34
2023-04-23T02:16:05.241Z,97444.91
2023-04-23T02:18:50.427Z,97475.25
2023-04-23T02:21:35.828Z,97477.59
2023-04-23T02:24:21.557Z,97476.44
2023-04-23T02:27:06.771Z,97478.47
2023-04-23T02:29:52.382Z,97477.59
2023-04-23T02:32:38.478Z,97475.31
2023-04-23T02:35:24.111Z,97480.97
2023-04-23T02:38:09.660Z,97476.75
2023-04-23T02:40:54.952Z,97483.03
2023-04-23T02:43:40.205Z,97474.13
2023-04-23T02:46:25.659Z,97476.88
2023-04-23T02:49:10.760Z,97480.69
2023-04-23T02:51:56.193Z,97478.16
2023-04-23T02:54:42.553Z,97474.38
2023-04-23T02:57:29.119Z,97478.34
2023-04-23T03:00:14.560Z,97472.41
2023-04-23T03:03:01.705Z,97473.03
2023-04-23T03:05:47.950Z,97423.28
2023-04-23T03:08:33.915Z,97473.31
2023-04-23T03:11:19.202Z,97474.31
2023-04-23T03:14:05.176Z,97466.69
2023-04-23T03:16:50.690Z,97463.09
2023-04-23T03:19:35.982Z,97478.09
2023-04-23T03:22:21.960Z,97483.19
2023-04-23T03:25:07.359Z,97478.81
2023-04-23T03:27:53.594Z,97428.19
2023-04-23T03:30:39.482Z,97484.00
2023-04-23T03:33:24.854Z,97457.38
2023-04-23T03:36:10.349Z,97475.09
2023-04-23T03:38:55.702Z,97457.91
2023-04-23T03:41:40.847Z,97478.56
2023-04-23T03:44:27.407Z,97480.78
2023-04-23T03:47:13.008Z,97457.69
2023-04-23T03:49:58.854Z,97478.06
2023-04-23T03:52:44.696Z,97478.25
2023-04-23T03:55:37.029Z,97434.44
2023-04-23T03:58:22.958Z,97487.53
2023-04-23T04:01:08.232Z,97491.00
2023-04-23T04:03:53.586Z,97494.47
2023-04-23T04:06:38.866Z,97478.34
2023-04-23T04:09:24.633Z,97486.56
2023-04-23T04:12:10.219Z,97448.56
2023-04-23T04:14:55.841Z,97489.63
2023-04-23T04:17:41.094Z,97492.31
2023-04-23T04:20:27.203Z,97445.97
2023-04-23T04:23:12.626Z,97498.13
2023-04-23T04:25:57.912Z,97495.19
2023-04-23T04:28:43.102Z,97498.94
2023-04-23T04:31:28.904Z,97504.22
2023-04-23T04:34:14.097Z,97502.59
2023-04-23T04:36:59.296Z,97481.34
2023-04-23T04:39:44.873Z,97505.78
2023-04-23T04:42:30.108Z,97514.16
2023-04-23T04:45:15.288Z,97521.41
2023-04-23T04:48:00.564Z,97528.50
2023-04-23T04:50:45.812Z,97524.28
2023-04-23T04:53:31.383Z,97538.00
2023-04-23T04:56:16.559Z,97544.09
2023-04-23T04:59:03.157Z,97545.09
2023-04-23T05:01:48.579Z,97544.13
2023-04-23T05:04:34.008Z,97497.41
2023-04-23T05:07:19.320Z,97542.94
2023-04-23T05:10:07.718Z,97549.13
2023-04-23T05:12:53.130Z,97551.59
2023-04-23T05:15:38.914Z,97559.09
2023-04-23T05:18:24.144Z,97550.31
2023-04-23T05:21:09.882Z,97550.19
2023-04-23T05:23:55.525Z,97562.19
2023-04-23T05:26:40.684Z,97494.03
2023-04-23T05:29:25.993Z,97556.13
2023-04-23T05:32:11.350Z,97548.97
2023-04-23T05:34:56.843Z,97566.34
2023-04-23T05:37:42.510Z,97576.19
2023-04-23T05:40:27.639Z,97578.44
2023-04-23T05:43:13.348Z,97573.16
2023-04-23T05:45:58.734Z,97580.16
2023-04-23T05:48:43.865Z,97370.22
2023-04-23T05:51:29.345Z,97594.84
2023-04-23T05:54:14.775Z,97574.28
2023-04-23T05:56:59.988Z,97587.78
2023-04-23T05:59:45.096Z,97582.97
2023-04-23T06:02:30.736Z,97591.47
2023-04-23T06:05:15.995Z,97592.16
2023-04-23T06:08:01.488Z,97589.91
2023-04-23T06:10:47.184Z,97594.16
2023-04-23T06:13:32.460Z,97536.41
2023-04-23T06:16:18.313Z,97600.84
2023-04-23T06:19:04.367Z,97592.47
2023-04-23T06:21:51.164Z,97593.25
2023-04-23T06:24:36.513Z,97591.41
2023-04-23T06:27:21.894Z,97589.66
2023-04-23T06:30:09.695Z,97568.81
2023-04-23T06:32:55.288Z,97600.19
2023-04-23T06:35:40.366Z,97606.72
2023-04-23T06:38:25.920Z,97600.84
2023-04-23T06:41:11.626Z,97599.78
2023-04-23T06:43:56.837Z,97597.03
2023-04-23T06:46:50.627Z,97596.66
2023-04-23T06:49:35.824Z,97606.16
2023-04-23T06:52:21.355Z,97597.00
2023-04-23T06:55:07.965Z,97597.53
2023-04-23T06:57:53.329Z,97585.94
2023-04-23T07:00:38.614Z,97588.28
2023-04-23T07:03:24.839Z,97575.31
2023-04-23T07:06:11.340Z,97581.47
2023-04-23T07:08:56.689Z,97582.13
2023-04-23T07:11:41.970Z,97586.34
2023-04-23T07:14:27.134Z,97588.84
2023-04-23T07:17:12.739Z,97586.78
2023-04-23T07:19:59.720Z,97580.97
2023-04-23T07:22:46.423Z,97572.28
2023-04-23T07:25:31.877Z,97581.50
2023-04-23T07:28:17.585Z,97542.88
2023-04-23T07:31:03.055Z,97581.47
2023-04-23T07:33:48.627Z,97585.16
2023-04-23T07:36:34.037Z,97590.63
2023-04-23T07:39:19.328Z,97570.66
2023-04-23T07:42:04.500Z,97580.34
2023-04-23T07:44:49.674Z,97585.84
2023-04-23T07:47:34.860Z,97581.19
2023-04-23T07:50:20.480Z,97552.00
2023-04-23T07:53:05.714Z,97585.28
2023-04-23T07:55:51.038Z,97587.13
2023-04-23T07:58:36.469Z,97582.31
2023-04-23T08:01:21.662Z,97575.53
2023-04-23T08:04:07.677Z,97569.94
2023-04-23T08:06:53.058Z,97585.09
2023-04-23T08:09:38.551Z,97580.22
2023-04-23T08:12:24.827Z,97543.69
2023-04-23T08:15:10.801Z,97575.09
2023-04-23T08:17:59.889Z,97564.69
2023-04-23T08:20:46.037Z,97562.19
2023-04-23T08:23:31.573Z,97571.75
2023-04-23T08:26:17.128Z,97566.88
2023-04-23T08:29:02.262Z,97569.00
2023-04-23T08:31:47.590Z,97525.91
2023-04-23T08:34:34.550Z,97560.47
2023-04-23T08:37:30.237Z,97559.31
2023-04-23T08:40:16.965Z,97515.31
2023-04-23T08:43:06.559Z,97564.28
2023-04-23T08:45:53.871Z,97570.47
2023-04-23T08:48:40.413Z,97578.75
2023-04-23T08:51:28.051Z,97578.81
2023-04-23T08:54:18.529Z,97565.22
2023-04-23T08:57:04.433Z,97565.41
2023-04-23T08:59:50.272Z,97559.38
2023-04-23T09:02:37.202Z,97556.69
2023-04-23T09:05:22.861Z,97549.34
2023-04-23T09:08:08.209Z,97553.28
2023-04-23T09:10:54.668Z,97498.41
2023-04-23T09:13:40.077Z,97550.84
2023-04-23T09:16:26.924Z,97520.19
2023-04-23T09:19:12.052Z,97541.25
2023-04-23T09:21:58.792Z,97549.50
2023-04-23T09:24:44.684Z,97539.97
2023-04-23T09:27:30.161Z,97530.19
2023-04-23T09:30:16.876Z,97526.38
2023-04-23T09:33:07.795Z,97532.66
2023-04-23T09:35:53.213Z,97533.63
2023-04-23T09:38:41.013Z,97533.53
2023-04-23T09:41:27.842Z,97511.03
2023-04-23T09:44:18.269Z,97542.69
2023-04-23T09:47:09.453Z,97534.56
2023-04-23T09:49:55.242Z,97488.72
2023-04-23T09:52:41.643Z,97527.84
2023-04-23T09:55:38.152Z,97531.91
2023-04-23T09:58:27.593Z,97521.75
2023-04-23T10:01:14.180Z,97508.31
2023-04-23T10:04:00.257Z,97516.94
2023-04-23T10:06:53.469Z,97520.44
2023-04-23T10:09:48.009Z,97519.97
2023-04-23T10:12:52.300Z,97448.59
2023-04-23T10:15:39.461Z,97517.59
2023-04-23T10:18:24.812Z,97513.38
2023-04-23T10:21:12.531Z,97514.47
2023-04-23T10:24:01.290Z,97472.03
2023-04-23T10:26:48.248Z,97448.16
2023-04-23T10:29:34.594Z,97497.28
2023-04-23T10:32:21.307Z,97503.66
2023-04-23T10:35:08.171Z,97492.53
2023-04-23T10:37:53.550Z,97494.88
2023-04-23T10:40:43.608Z,97502.16
2023-04-23T10:43:29.390Z,97505.81
2023-04-23T10:46:56.430Z,97512.94
2023-04-23T10:49:43.812Z,97500.28
2023-04-23T10:52:32.540Z,97495.78
2023-04-23T10:55:19.689Z,97503.81
2023-04-23T10:58:07.265Z,97486.53
2023-04-23T11:00:52.755Z,97480.00
2023-04-23T11:03:43.052Z,97489.44
2023-04-23T11:06:47.938Z,97484.41
2023-04-23T11:09:37.350Z,97482.78
2023-04-23T11:12:28.345Z,97473.94
2023-04-23T11:15:15.977Z,97471.81
2023-04-23T11:18:02.030Z,97458.25
2023-04-23T11:20:47.971Z,97427.59
2023-04-23T11:23:33.367Z,97458.31
2023-04-23T11:26:18.574Z,97449.78
2023-04-23T11:29:04.517Z,97454.88
2023-04-23T11:32:01.581Z,97442.53
2023-04-23T11:34:48.738Z,97440.59
2023-04-23T11:37:43.232Z,97445.00
2023-04-23T11:40:33.066Z,97435.38
2023-04-23T11:43:19.237Z,97395.00
2023-04-23T11:46:04.982Z,97439.19
2023-04-23T11:48:50.477Z,97422.63
2023-04-23T11:51:41.326Z,97411.94
2023-04-23T11:54:28.225Z,97417.19
2023-04-23T11:57:13.469Z,97416.97
2023-04-23T11:59:58.656Z,97417.25
2023-04-23T12:03:01.408Z,97363.13
2023-04-23T12:05:47.137Z,97414.06
2023-04-23T12:08:33.828Z,97408.41
2023-04-23T12:11:19.274Z,97404.16
2023-04-23T12:14:04.960Z,97404.44
2023-04-23T12:16:50.075Z,97401.41
2023-04-23T12:19:35.386Z,97394.72
2023-04-23T12:22:27.575Z,97392.09
2023-04-23T12:25:13.595Z,97344.19
2023-04-23T12:28:00.249Z,97395.25
2023-04-23T12:30:45.845Z,97387.25
2023-04-23T12:33:31.809Z,97393.66
2023-04-23T12:36:17.060Z,97392.09
2023-04-23T12:39:21.617Z,97395.34
2023-04-23T12:42:08.665Z,97386.75
2023-04-23T12:44:53.815Z,97390.94
2023-04-23T12:47:39.174Z,97384.53
2023-04-23T12:50:24.409Z,97391.41
2023-04-23T12:53:09.974Z,97382.34
2023-04-23T12:55:55.102Z,97382.06
2023-04-23T12:58:40.228Z,97377.31
2023-04-23T13:01:25.730Z,97379.78
2023-04-23T13:04:11.084Z,97367.47
2023-04-23T13:06:56.462Z,97365.09
2023-04-23T13:09:41.644Z,97364.00
2023-04-23T13:12:27.111Z,97354.88
2023-04-23T13:15:12.834Z,97346.88
2023-04-23T13:17:58.020Z,97350.34
2023-04-23T13:20:43.123Z,97350.13
2023-04-23T13:23:28.552Z,97341.53
2023-04-23T13:26:14.152Z,97333.25
2023-04-23T13:29:00.202Z,97270.13
2023-04-23T13:31:45.565Z,97324.59
2023-04-23T13:34:30.988Z,97326.50
2023-04-23T13:37:16.576Z,97316.00
2023-04-23T13:40:02.103Z,97325.06
2023-04-23T13:42:47.125Z,97308.19
2023-04-23T13:45:32.736Z,97285.94
2023-04-23T13:48:18.362Z,97278.41
2023-04-23T13:51:06.480Z,97286.03
2023-04-23T13:53:56.383Z,97260.47
2023-04-23T13:56:41.780Z,97194.19
2023-04-23T13:59:27.110Z,97275.69
2023-04-23T14:02:12.795Z,97271.88
2023-04-23T14:04:58.210Z,97264.72
2023-04-23T14:07:43.376Z,97266.38
2023-04-23T14:10:29.030Z,97236.44
2023-04-23T14:13:14.162Z,97254.81
2023-04-23T14:16:02.042Z,97254.06
2023-04-23T14:18:48.635Z,97196.63
2023-04-23T14:21:34.103Z,97247.69
2023-04-23T14:24:27.559Z,97224.69
2023-04-23T14:27:13.160Z,97241.53
2023-04-23T14:30:02.823Z,97241.78
2023-04-23T14:32:50.052Z,97241.25
2023-04-23T14:35:43.167Z,97222.00
2023-04-23T14:38:28.973Z,97242.88
2023-04-23T14:41:14.158Z,97232.72
2023-04-23T14:44:01.247Z,97227.88
2023-04-23T14:46:46.411Z,97222.25
2023-04-23T14:49:32.029Z,97220.38
2023-04-23T14:52:17.107Z,97223.59
2023-04-23T14:55:02.677Z,97224.66
2023-04-23T14:57:48.620Z,97209.44
2023-04-23T15:00:34.102Z,97204.38
2023-04-23T15:03:19.886Z,97197.63
2023-04-23T15:06:06.746Z,97196.84
2023-04-23T15:08:52.112Z,97206.00
2023-04-23T15:11:38.336Z,97196.91
2023-04-23T15:14:32.875Z,97169.91
2023-04-23T15:17:18.222Z,97187.25
2023-04-23T15:20:03.610Z,97184.03
2023-04-23T15:22:49.185Z,97149.28
2023-04-23T15:25:35.186Z,97184.81
2023-04-23T15:28:20.715Z,97190.94
2023-04-23T15:31:06.054Z,97180.00
2023-04-23T15:33:51.544Z,97183.16
2023-04-23T15:36:37.403Z,97184.22
2023-04-23T15:39:23.022Z,97181.06
2023-04-23T15:42:08.255Z,97112.16
2023-04-23T15:44:53.486Z,97149.25
2023-04-23T15:47:39.498Z,97174.31
2023-04-23T15:50:24.918Z,97168.44
2023-04-23T15:53:12.933Z,97181.06
2023-04-23T15:55:58.414Z,97160.25
2023-04-23T15:58:43.558Z,97158.94
2023-04-23T16:01:29.850Z,97157.59
2023-04-23T16:04:16.056Z,97153.63
2023-04-23T16:07:01.549Z,97153.09
2023-04-23T16:09:46.868Z,97151.97
2023-04-23T16:12:32.250Z,97142.88
2023-04-23T16:15:17.833Z,97140.22
2023-04-23T16:18:03.200Z,97143.75
2023-04-23T16:20:48.573Z,97144.53
2023-04-23T16:23:33.883Z,97115.91
2023-04-23T16:26:19.212Z,97131.63
2023-04-23T16:29:16.802Z,97135.22
2023-04-23T16:32:06.410Z,97065.03
2023-04-23T16:34:51.598Z,97120.22
2023-04-23T16:37:36.806Z,97117.53
2023-04-23T16:40:22.305Z,97117.53
2023-04-23T16:43:07.729Z,97112.41
2023-04-23T16:45:53.482Z,97103.56
2023-04-23T16:48:39.241Z,97099.78
2023-04-23T16:51:24.850Z,97106.25
2023-04-23T16:54:12.178Z,97108.31
2023-04-23T16:56:57.652Z,97026.28
2023-04-23T16:59:43.617Z,97037.66
2023-04-23T17:02:29.438Z,97093.53
2023-04-23T17:05:15.023Z,97051.56
2023-04-23T17:08:00.462Z,97094.72
2023-04-23T17:10:46.114Z,97079.47
2023-04-23T17:13:31.404Z,97087.81
2023-04-23T17:16:16.789Z,97085.72
2023-04-23T17:19:03.522Z,97039.72
2023-04-23T17:21:48.905Z,97077.47
2023-04-23T17:24:35.220Z,97082.28
2023-04-23T17:27:22.018Z,97072.09
2023-04-23T17:30:08.413Z,97071.53
2023-04-23T17:32:55.362Z,97061.16
2023-04-23T17:35:40.729Z,96992.34
2023-04-23T17:38:26.207Z,97056.41
2023-04-23T17:41:11.452Z,97060.81
2023-04-23T17:43:56.711Z,97051.09
2023-04-23T17:46:42.083Z,97060.63
2023-04-23T17:49:28.102Z,97023.69
2023-04-23T17:52:13.189Z,97052.88
2023-04-23T17:54:58.620Z,97059.69
2023-04-23T17:57:43.889Z,97057.47
2023-04-23T18:00:29.128Z,97054.69
2023-04-23T18:03:14.981Z,97031.38
2023-04-23T18:06:00.938Z,97050.66
2023-04-23T18:08:46.306Z,97013.56
2023-04-23T18:11:31.762Z,97043.56
2023-04-23T18:14:17.210Z,97042.84
2023-04-23T18:17:02.433Z,97038.38
2023-04-23T18:19:47.524Z,97028.44
2023-04-23T18:22:32.756Z,97036.72
2023-04-23T18:25:18.082Z,97040.69
2023-04-23T18:28:03.541Z,97044.16
2023-04-23T18:30:49.553Z,97009.97
2023-04-23T18:33:47.841Z,97045.16
2023-04-23T18:36:36.750Z,97042.84
2023-04-23T18:39:22.288Z,97011.16
2023-04-23T18:42:07.669Z,97042.31
2023-04-23T18:44:52.797Z,97027.84
2023-04-23T18:47:44.286Z,97024.88
2023-04-23T18:50:44.191Z,97043.25
2023-04-23T18:53:29.762Z,97051.56
2023-04-23T18:56:15.089Z,97054.81
2023-04-23T18:59:00.741Z,97027.69
2023-04-23T19:01:47.081Z,97046.53
2023-04-23T19:04:33.559Z,97052.97
2023-04-23T19:07:18.969Z,97031.03
2023-04-23T19:10:04.509Z,97067.38
2023-04-23T19:12:49.963Z,97061.75
2023-04-23T19:15:35.219Z,97062.34
2023-04-23T19:18:21.512Z,97052.94
2023-04-23T19:21:07.010Z,97042.72
2023-04-23T19:23:52.608Z,97048.47
2023-04-23T19:26:37.919Z,96985.84
2023-04-23T19:29:24.516Z,97043.56
2023-04-23T19:32:10.419Z,97047.88
2023-04-23T19:34:56.024Z,97046.72
2023-04-23T19:37:41.310Z,97044.63
2023-04-23T19:40:26.786Z,97049.44
2023-04-23T19:43:12.915Z,97045.56
2023-04-23T19:45:58.307Z,97044.38
2023-04-23T19:48:43.658Z,97038.63
2023-04-23T19:51:32.093Z,97029.31
2023-04-23T19:54:17.457Z,97028.03
2023-04-23T19:57:02.828Z,97045.88
2023-04-23T19:59:48.755Z,97072.69
2023-04-23T20:02:35.224Z,97074.13
2023-04-23T20:05:20.847Z,97092.88
2023-04-23T20:08:06.195Z,97092.72
2023-04-23T20:10:52.747Z,97096.03
2023-04-23T20:13:37.801Z,97092.31
2023-04-23T20:16:23.982Z,97070.81
2023-04-23T20:19:09.857Z,97087.00
2023-04-23T20:21:55.579Z,97078.28
2023-04-23T20:24:40.931Z,97073.34
2023-04-23T20:27:26.284Z,97059.06
2023-04-23T20:30:13.779Z,97068.09
2023-04-23T20:32:59.799Z,97081.13
2023-04-23T20:35:44.933Z,97099.78
2023-04-23T20:38:30.566Z,97110.84
2023-04-23T20:41:15.821Z,97103.38
2023-04-23T20:44:01.174Z,97106.47
2023-04-23T20:46:46.425Z,97107.28
2023-04-23T20:49:31.954Z,97044.59
2023-04-23T20:52:17.426Z,97084.47
2023-04-23T20:55:02.694Z,97059.25
2023-04-23T20:57:48.271Z,97104.72
2023-04-23T21:00:33.630Z,97100.84
2023-04-23T21:03:19.309Z,97094.53
2023-04-23T21:06:06.148Z,97073.56
2023-04-23T21:08:51.336Z,97053.41
2023-04-23T21:11:36.718Z,97053.69
2023-04-23T21:14:21.979Z,97092.19
2023-04-23T21:17:07.262Z,97106.69
2023-04-23T21:19:52.470Z,97112.31
2023-04-23T21:22:37.690Z,97098.72
2023-04-23T21:25:22.882Z,97106.91
2023-04-23T21:28:08.314Z,97120.50
2023-04-23T21:31:01.075Z,97107.06
2023-04-23T21:33:46.544Z,97087.13
2023-04-23T21:36:32.265Z,97075.88
2023-04-23T21:39:17.630Z,97105.50
2023-04-23T21:42:02.911Z,97064.34
2023-04-23T21:44:48.050Z,97085.47
2023-04-23T21:47:33.288Z,97083.72
2023-04-23T21:50:18.442Z,97072.03
2023-04-23T21:53:04.105Z,97061.31
2023-04-23T21:55:49.985Z,97075.22
2023-04-23T21:58:35.078Z,97074.22
2023-04-23T22:01:21.042Z,97081.00
2023-04-23T22:04:06.511Z,97077.16
2023-04-23T22:06:52.196Z,97073.81
2023-04-23T22:09:37.663Z,97085.88
2023-04-23T22:12:22.909Z,97068.28
2023-04-23T22:15:11.337Z,97063.97
2023-04-23T22:17:56.831Z,97037.78
2023-04-23T22:20:42.130Z,97074.75
2023-04-23T22:23:27.484Z,97056.34
2023-04-23T22:26:12.729Z,97077.03
2023-04-23T22:28:57.893Z,97076.81
2023-04-23T22:31:43.421Z,97073.03
2023-04-23T22:34:28.918Z,97069.16
2023-04-23T22:37:14.278Z,97065.72
2023-04-23T22:39:59.845Z,97072.25
2023-04-23T22:42:45.288Z,97074.78
2023-04-23T22:45:30.441Z,97063.59
2023-04-23T22:48:15.506Z,97061.22
2023-04-23T22:51:02.187Z,97069.47
2023-04-23T22:53:48.684Z,97073.03
2023-04-23T22:56:34.225Z,97064.28
2023-04-23T22:59:20.461Z,96987.44
2023-04-23T23:02:06.825Z,97060.97
2023-04-23T23:04:52.159Z,97061.66
2023-04-23T23:07:37.401Z,97053.13
2023-04-23T23:10:23.139Z,97059.44
2023-04-23T23:13:08.363Z,97055.88
2023-04-23T23:15:53.477Z,97061.19
2023-04-23T23:18:39.386Z,97071.53
2023-04-23T23:21:24.647Z,97079.56
2023-04-23T23:24:10.336Z,97026.28
2023-04-23T23:26:55.500Z,97069.34
2023-04-23T23:29:42.156Z,97060.28
2023-04-23T23:32:28.422Z,97056.13
2023-04-23T23:35:13.889Z,97053.72
2023-04-23T23:37:59.842Z,97053.94
2023-04-23T23:40:45.040Z,97058.41
2023-04-23T23:43:32.094Z,97055.44
2023-04-23T23:46:17.853Z,97034.38
2023-04-23T23:49:03.035Z,97052.94
2023-04-23T23:51:48.435Z,96993.44
2023-04-23T23:54:33.886Z,97050.59
2023-04-23T23:57:19.115Z,97076.22
